<?xml version='1.0' encoding='UTF-8'?>
<gpx xmlns="http://www.topografix.com/GPX/1/1" creator="www.balnam.be" version="1.1" xmlns:xsi="http://www.w3.org/2001/XMLSchema-instance" xsi:schemaLocation="http://www.topografix.com/GPX/1/1 http://www.topografix.com/GPX/1/1/gpx.xsd">
<trk>
<name>bicrm13</name>
<cmt>q</cmt>
<desc>Roux-Miroir Chemin n°13 Roivoie</desc>
<link href="https://chemins.be/rouxmiroir/chemin/13"/><trkseg>
<trkpt lat="50.708312" lon="4.784874"><time>2026-05-02T19:47:20Z</time></trkpt>
<trkpt lat="50.708058" lon="4.783891"><time>2026-05-02T19:57:20Z</time></trkpt>
<trkpt lat="50.708155" lon="4.783443"><time>2026-05-02T20:07:20Z</time></trkpt>
</trkseg></trk>
<trk>
<name>bicrm13</name>
<cmt>v</cmt>
<desc>Roux-Miroir Chemin n°13 Roivoie</desc>
<link href="https://chemins.be/rouxmiroir/chemin/13"/><trkseg>
<trkpt lat="50.708155" lon="4.783443"><time>2026-05-02T20:07:20Z</time></trkpt>
<trkpt lat="50.708498" lon="4.782978"><time>2026-05-02T20:17:20Z</time></trkpt>
</trkseg></trk>
<trk>
<name>bicrm13</name>
<cmt>r</cmt>
<desc>Roux-Miroir Chemin n°13 Roivoie</desc>
<link href="https://chemins.be/rouxmiroir/chemin/13"/><trkseg>
<trkpt lat="50.708498" lon="4.782978"><time>2026-05-02T20:17:20Z</time></trkpt>
<trkpt lat="50.709323" lon="4.781230"><time>2026-05-02T20:27:20Z</time></trkpt>
<trkpt lat="50.710049" lon="4.779070"><time>2026-05-02T20:37:20Z</time></trkpt>
<trkpt lat="50.710089" lon="4.778108"><time>2026-05-02T20:47:20Z</time></trkpt>
</trkseg></trk>
<trk>
<name>bicrm13</name>
<cmt>v</cmt>
<desc>Roux-Miroir Chemin n°13 Roivoie</desc>
<link href="https://chemins.be/rouxmiroir/chemin/13"/><trkseg>
<trkpt lat="50.710089" lon="4.778108"><time>2026-05-02T20:47:20Z</time></trkpt>
<trkpt lat="50.710863" lon="4.775254"><time>2026-05-02T20:57:20Z</time></trkpt>
<trkpt lat="50.712348" lon="4.772081"><time>2026-05-02T21:07:20Z</time></trkpt>
<trkpt lat="50.713798" lon="4.768766"><time>2026-05-02T21:17:20Z</time></trkpt>
<trkpt lat="50.714312" lon="4.766234"><time>2026-05-02T21:27:20Z</time></trkpt>
<trkpt lat="50.714253" lon="4.763780"><time>2026-05-02T21:37:20Z</time></trkpt>
<trkpt lat="50.714907" lon="4.759954"><time>2026-05-02T21:47:20Z</time></trkpt>
<trkpt lat="50.714923" lon="4.757729"><time>2026-05-02T21:57:20Z</time></trkpt>
<trkpt lat="50.715719" lon="4.753646"><time>2026-05-02T22:07:20Z</time></trkpt>
<trkpt lat="50.716535" lon="4.751270"><time>2026-05-02T22:17:20Z</time></trkpt>
<trkpt lat="50.717629" lon="4.748257"><time>2026-05-02T22:27:20Z</time></trkpt>
<trkpt lat="50.718509" lon="4.746592"><time>2026-05-02T22:37:20Z</time></trkpt>
</trkseg></trk>
<trk>
<name>bicrm13</name>
<cmt>d</cmt>
<desc>Roux-Miroir Chemin n°13 Roivoie</desc>
<link href="https://chemins.be/rouxmiroir/chemin/13"/><trkseg>
<trkpt lat="50.718509" lon="4.746592"><time>2026-05-02T22:37:20Z</time></trkpt>
<trkpt lat="50.719156" lon="4.747220"><time>2026-05-02T22:47:20Z</time></trkpt>
<trkpt lat="50.720571" lon="4.748998"><time>2026-05-02T22:57:20Z</time></trkpt>
<trkpt lat="50.721239" lon="4.750703"><time>2026-05-02T23:07:20Z</time></trkpt>
<trkpt lat="50.721341" lon="4.751694"><time>2026-05-02T23:17:20Z</time></trkpt>
</trkseg>
</trk>
</gpx>